createdAt,value
2023-04-26T00:02:19.731Z,53.26
2023-04-26T00:04:56.279Z,52.98
2023-04-26T00:07:28.825Z,53.10
2023-04-26T00:09:59.585Z,53.17
2023-04-26T00:12:30.648Z,53.19
2023-04-26T00:15:01.401Z,53.27
2023-04-26T00:17:33.012Z,53.16
2023-04-26T00:20:06.634Z,53.15
2023-04-26T00:22:37.532Z,53.21
2023-04-26T00:25:09.906Z,53.11
2023-04-26T00:27:40.689Z,53.28
2023-04-26T00:30:13.158Z,53.39
2023-04-26T00:32:43.947Z,53.31
2023-04-26T00:35:14.898Z,53.27
2023-04-26T00:37:45.585Z,53.24
2023-04-26T00:40:17.490Z,53.32
2023-04-26T00:42:48.379Z,53.37
2023-04-26T00:45:19.201Z,53.42
2023-04-26T00:47:49.979Z,53.42
2023-04-26T00:50:21.685Z,53.51
2023-04-26T00:52:53.047Z,53.48
2023-04-26T00:55:27.135Z,53.38
2023-04-26T00:57:57.945Z,53.63
2023-04-26T01:00:29.851Z,53.67
2023-04-26T01:03:01.437Z,53.68
2023-04-26T01:05:33.838Z,53.65
2023-04-26T01:08:05.446Z,53.71
2023-04-26T01:10:37.258Z,53.79
2023-04-26T01:13:08.313Z,53.79
2023-04-26T01:15:39.666Z,53.72
2023-04-26T01:18:10.394Z,53.91
2023-04-26T01:20:41.780Z,53.82
2023-04-26T01:23:12.750Z,53.94
2023-04-26T01:25:44.127Z,53.85
2023-04-26T01:28:14.889Z,53.97
2023-04-26T01:30:45.870Z,53.89
2023-04-26T01:33:17.283Z,53.97
2023-04-26T01:35:47.911Z,54.02
2023-04-26T01:38:22.743Z,53.75
2023-04-26T01:40:53.415Z,54.03
2023-04-26T01:43:24.743Z,54.08
2023-04-26T01:45:55.486Z,54.10
2023-04-26T01:48:26.439Z,54.08
2023-04-26T01:50:57.494Z,54.18
2023-04-26T01:53:28.198Z,54.30
2023-04-26T01:56:01.493Z,54.10
2023-04-26T01:58:32.640Z,54.14
2023-04-26T02:01:10.400Z,54.10
2023-04-26T02:03:41.613Z,54.30
2023-04-26T02:06:12.386Z,54.25
2023-04-26T02:08:43.179Z,54.18
2023-04-26T02:11:13.860Z,54.34
2023-04-26T02:13:44.583Z,54.28
2023-04-26T02:16:17.027Z,54.38
2023-04-26T02:18:49.831Z,54.45
2023-04-26T02:21:20.869Z,54.55
2023-04-26T02:23:51.694Z,54.51
2023-04-26T02:26:22.383Z,54.55
2023-04-26T02:28:53.185Z,54.54
2023-04-26T02:31:24.107Z,54.66
2023-04-26T02:33:54.861Z,54.62
2023-04-26T02:36:27.421Z,54.70
2023-04-26T02:38:58.089Z,54.76
2023-04-26T02:41:28.861Z,54.67
2023-04-26T02:43:59.848Z,54.62
2023-04-26T02:46:30.623Z,54.55
2023-04-26T02:49:01.425Z,54.73
2023-04-26T02:51:33.342Z,54.85
2023-04-26T02:54:06.397Z,54.80
2023-04-26T02:56:37.673Z,54.88
2023-04-26T02:59:08.661Z,54.80
2023-04-26T03:01:39.782Z,54.89
2023-04-26T03:04:10.569Z,54.88
2023-04-26T03:06:41.658Z,54.90
2023-04-26T03:09:12.552Z,54.89
2023-04-26T03:11:43.230Z,54.79
2023-04-26T03:14:14.052Z,54.92
2023-04-26T03:16:48.620Z,54.98
2023-04-26T03:19:19.505Z,55.09
2023-04-26T03:21:50.231Z,55.01
2023-04-26T03:24:21.198Z,54.96
2023-04-26T03:26:52.323Z,55.06
2023-04-26T03:29:23.069Z,55.06
2023-04-26T03:31:53.975Z,55.08
2023-04-26T03:34:24.855Z,55.06
2023-04-26T03:36:56.205Z,55.12
2023-04-26T03:39:26.839Z,55.07
2023-04-26T03:41:57.493Z,54.89
2023-04-26T03:44:30.539Z,54.07
2023-04-26T03:47:02.889Z,54.34
2023-04-26T03:49:33.688Z,54.49
2023-04-26T03:52:04.488Z,54.59
2023-04-26T03:54:35.196Z,54.52
2023-04-26T03:57:06.189Z,54.67
2023-04-26T03:59:37.237Z,54.65
2023-04-26T04:02:08.260Z,54.48
2023-04-26T04:04:39.105Z,54.69
2023-04-26T04:07:09.862Z,54.46
2023-04-26T04:09:40.702Z,54.48
2023-04-26T04:12:11.750Z,54.00
2023-04-26T04:14:42.591Z,53.86
2023-04-26T04:17:13.495Z,53.95
2023-04-26T04:19:45.070Z,53.98
2023-04-26T04:22:15.879Z,54.02
2023-04-26T04:24:47.591Z,53.72
2023-04-26T04:27:18.181Z,53.46
2023-04-26T04:29:49.106Z,53.40
2023-04-26T04:32:19.777Z,53.62
2023-04-26T04:34:51.216Z,53.47
2023-04-26T04:37:23.130Z,53.50
2023-04-26T04:39:54.715Z,53.42
2023-04-26T04:42:27.255Z,53.63
2023-04-26T04:44:59.650Z,53.42
2023-04-26T04:47:30.274Z,53.52
2023-04-26T04:50:02.237Z,53.41
2023-04-26T04:52:33.240Z,53.39
2023-04-26T04:55:04.963Z,53.44
2023-04-26T04:57:36.184Z,53.41
2023-04-26T05:00:10.597Z,53.24
2023-04-26T05:02:41.544Z,53.35
2023-04-26T05:05:13.645Z,53.26
2023-04-26T05:07:44.335Z,53.31
2023-04-26T05:10:16.217Z,53.37
2023-04-26T05:12:47.190Z,53.36
2023-04-26T05:15:18.052Z,53.13
2023-04-26T05:17:49.505Z,53.21
2023-04-26T05:20:20.702Z,53.16
2023-04-26T05:22:51.447Z,53.23
2023-04-26T05:25:23.154Z,53.30
2023-04-26T05:27:54.018Z,53.23
2023-04-26T05:30:25.364Z,53.12
2023-04-26T05:32:57.250Z,53.08
2023-04-26T05:35:28.323Z,53.17
2023-04-26T05:37:59.432Z,53.10
2023-04-26T05:40:30.415Z,52.95
2023-04-26T05:43:01.249Z,53.04
2023-04-26T05:45:32.137Z,52.94
2023-04-26T05:48:03.200Z,53.08
2023-04-26T05:50:34.693Z,53.06
2023-04-26T05:53:05.428Z,53.02
2023-04-26T05:55:36.342Z,52.97
2023-04-26T05:58:07.728Z,53.00
2023-04-26T06:00:38.900Z,53.05
2023-04-26T06:03:10.013Z,52.99
2023-04-26T06:05:41.497Z,52.83
2023-04-26T06:08:12.601Z,52.90
2023-04-26T06:10:43.677Z,53.19
2023-04-26T06:13:14.372Z,52.94
2023-04-26T06:15:45.605Z,52.86
2023-04-26T06:18:16.621Z,52.82
2023-04-26T06:20:48.052Z,52.82
2023-04-26T06:23:20.325Z,52.82
2023-04-26T06:25:53.329Z,52.76
2023-04-26T06:28:24.131Z,52.81
2023-04-26T06:30:55.075Z,52.86
2023-04-26T06:33:26.251Z,52.89
2023-04-26T06:35:56.980Z,52.85
2023-04-26T06:38:28.034Z,52.81
2023-04-26T06:40:58.766Z,52.81
2023-04-26T06:43:29.434Z,52.78
2023-04-26T06:46:00.457Z,52.79
2023-04-26T06:48:31.184Z,52.85
2023-04-26T06:51:06.683Z,52.80
2023-04-26T06:53:37.575Z,52.81
2023-04-26T06:56:09.055Z,52.77
2023-04-26T06:58:40.092Z,52.79
2023-04-26T07:01:10.932Z,52.83
2023-04-26T07:03:43.103Z,52.86
2023-04-26T07:06:14.243Z,52.87
2023-04-26T07:08:44.828Z,52.85
2023-04-26T07:11:15.909Z,52.84
2023-04-26T07:13:46.693Z,52.79
2023-04-26T07:16:18.147Z,52.81
2023-04-26T07:18:49.156Z,52.75
2023-04-26T07:21:20.251Z,52.81
2023-04-26T07:23:54.697Z,52.77
2023-04-26T07:26:27.016Z,52.80
2023-04-26T07:28:58.106Z,52.84
2023-04-26T07:31:28.925Z,52.91
2023-04-26T07:33:59.902Z,52.78
2023-04-26T07:36:31.724Z,52.82
2023-04-26T07:39:02.729Z,52.71
2023-04-26T07:41:33.553Z,52.73
2023-04-26T07:44:04.645Z,52.70
2023-04-26T07:46:35.762Z,52.64
2023-04-26T07:49:06.707Z,52.79
2023-04-26T07:51:39.140Z,52.55
2023-04-26T07:54:09.801Z,52.63
2023-04-26T07:56:40.766Z,52.57
2023-04-26T07:59:11.590Z,52.59
2023-04-26T08:01:42.521Z,52.52
2023-04-26T08:04:13.759Z,52.51
2023-04-26T08:06:45.363Z,52.54
2023-04-26T08:09:16.195Z,52.61
2023-04-26T08:11:47.356Z,52.61
2023-04-26T08:14:18.585Z,52.52
2023-04-26T08:16:49.461Z,52.42
2023-04-26T08:19:20.268Z,52.53
2023-04-26T08:21:51.300Z,52.58
2023-04-26T08:24:22.001Z,52.40
2023-04-26T08:26:52.893Z,52.45
2023-04-26T08:29:24.257Z,52.48
2023-04-26T08:31:54.986Z,52.54
2023-04-26T08:34:26.973Z,52.58
2023-04-26T08:36:58.223Z,52.53
2023-04-26T08:39:29.600Z,52.42
2023-04-26T08:42:14.676Z,52.37
2023-04-26T08:44:46.500Z,52.48
2023-04-26T08:47:20.337Z,52.47
2023-04-26T08:49:59.845Z,52.38
2023-04-26T08:52:32.328Z,52.39
2023-04-26T08:55:05.000Z,52.36
2023-04-26T08:57:36.617Z,52.44
2023-04-26T09:00:12.464Z,52.48
2023-04-26T09:02:51.194Z,52.35
2023-04-26T09:05:24.867Z,52.32
2023-04-26T09:08:01.259Z,52.22
2023-04-26T09:10:33.481Z,52.34
2023-04-26T09:13:04.311Z,52.37
2023-04-26T09:15:35.142Z,52.30
2023-04-26T09:21:10.219Z,52.20
2023-04-26T09:24:01.848Z,52.17
2023-04-26T09:26:32.645Z,52.19
2023-04-26T09:29:16.503Z,52.24
2023-04-26T09:31:49.817Z,52.12
2023-04-26T09:34:21.004Z,52.23
2023-04-26T09:36:53.709Z,52.20
2023-04-26T09:39:38.690Z,52.22
2023-04-26T09:42:10.176Z,52.12
2023-04-26T09:44:43.384Z,52.03
2023-04-26T09:47:14.267Z,52.16
2023-04-26T09:49:50.635Z,52.14
2023-04-26T09:52:22.105Z,52.07
2023-04-26T09:54:54.566Z,52.07
2023-04-26T09:57:25.498Z,51.96
2023-04-26T09:59:57.577Z,51.95
2023-04-26T10:02:30.179Z,51.93
2023-04-26T10:05:02.465Z,51.94
2023-04-26T10:07:33.669Z,51.79
2023-04-26T10:10:04.930Z,51.93
2023-04-26T10:12:37.130Z,51.97
2023-04-26T10:15:10.117Z,51.98
2023-04-26T10:17:41.118Z,51.83
2023-04-26T10:20:14.863Z,51.76
2023-04-26T10:22:53.142Z,51.70
2023-04-26T10:25:35.670Z,51.68
2023-04-26T10:28:07.119Z,51.70
2023-04-26T10:30:57.604Z,51.66
2023-04-26T10:33:28.882Z,51.78
2023-04-26T10:36:21.246Z,51.72
2023-04-26T10:39:22.350Z,51.79
2023-04-26T10:42:13.071Z,51.69
2023-04-26T10:44:45.916Z,51.74
2023-04-26T10:47:30.359Z,51.70
2023-04-26T10:50:09.624Z,51.69
2023-04-26T10:53:04.253Z,51.74
2023-04-26T10:55:41.948Z,51.70
2023-04-26T10:58:30.037Z,51.76
2023-04-26T11:01:11.910Z,51.79
2023-04-26T11:03:44.135Z,51.76
2023-04-26T11:06:17.538Z,51.72
2023-04-26T11:08:50.904Z,51.54
2023-04-26T11:11:27.422Z,51.69
2023-04-26T11:13:58.703Z,51.64
2023-04-26T11:16:31.812Z,51.65
2023-04-26T11:19:02.858Z,51.64
2023-04-26T11:21:33.829Z,51.69
2023-04-26T11:24:05.172Z,51.60
2023-04-26T11:26:37.291Z,51.61
2023-04-26T11:29:13.521Z,51.62
2023-04-26T11:31:44.401Z,51.50
2023-04-26T11:34:15.482Z,51.66
2023-04-26T11:36:47.754Z,51.66
2023-04-26T11:39:20.709Z,51.48
2023-04-26T11:41:51.828Z,51.53
2023-04-26T11:44:23.095Z,51.54
2023-04-26T11:46:54.457Z,51.53
2023-04-26T11:49:25.770Z,51.50
2023-04-26T11:51:56.906Z,51.34
2023-04-26T11:54:36.716Z,51.47
2023-04-26T11:57:18.700Z,51.62
2023-04-26T11:59:49.670Z,51.47
2023-04-26T12:02:25.489Z,51.52
2023-04-26T12:05:03.892Z,51.52
2023-04-26T12:07:38.905Z,51.51
2023-04-26T12:10:19.073Z,51.41
2023-04-26T12:12:52.444Z,51.50
2023-04-26T12:15:26.081Z,51.54
2023-04-26T12:17:58.563Z,51.47
2023-04-26T12:20:40.240Z,51.55
2023-04-26T12:23:12.761Z,51.36
2023-04-26T12:25:53.396Z,51.37
2023-04-26T12:28:25.156Z,51.39
2023-04-26T12:30:56.294Z,51.33
2023-04-26T12:33:27.057Z,51.33
2023-04-26T12:36:00.328Z,51.32
2023-04-26T12:38:32.459Z,51.33
2023-04-26T12:41:03.199Z,51.27
2023-04-26T12:43:34.062Z,51.30
2023-04-26T12:46:05.608Z,51.36
2023-04-26T12:48:36.793Z,51.24
2023-04-26T12:51:08.587Z,51.30
2023-04-26T12:53:39.504Z,51.30
2023-04-26T12:56:10.712Z,51.33
2023-04-26T12:58:41.888Z,51.35
2023-04-26T13:01:14.663Z,51.30
2023-04-26T13:03:46.203Z,51.37
2023-04-26T13:06:17.550Z,51.33
2023-04-26T13:08:48.359Z,51.32
2023-04-26T13:11:19.451Z,51.43
2023-04-26T13:13:50.586Z,51.42
2023-04-26T13:16:21.570Z,51.39
2023-04-26T13:18:52.359Z,51.34
2023-04-26T13:21:23.271Z,51.26
2023-04-26T13:23:54.278Z,51.32
2023-04-26T13:26:27.540Z,51.31
2023-04-26T13:28:59.025Z,51.34
2023-04-26T13:31:29.988Z,51.32
2023-04-26T13:34:01.114Z,51.33
2023-04-26T13:36:32.161Z,51.36
2023-04-26T13:39:05.150Z,51.40
2023-04-26T13:41:36.142Z,51.34
2023-04-26T13:44:07.275Z,51.35
2023-04-26T13:46:38.201Z,51.37
2023-04-26T13:49:10.354Z,51.26
2023-04-26T13:51:41.818Z,51.21
2023-04-26T13:54:13.157Z,51.20
2023-04-26T13:56:44.015Z,51.11
2023-04-26T13:59:14.918Z,51.14
2023-04-26T14:01:46.572Z,51.08
2023-04-26T14:04:17.767Z,51.14
2023-04-26T14:06:48.806Z,50.95
2023-04-26T14:09:19.686Z,51.00
2023-04-26T14:12:04.429Z,50.97
2023-04-26T14:14:39.204Z,51.05
2023-04-26T14:17:10.188Z,51.07
2023-04-26T14:19:42.324Z,51.16
2023-04-26T14:22:13.363Z,50.92
2023-04-26T14:24:44.154Z,50.72
2023-04-26T14:27:15.064Z,50.96
2023-04-26T14:29:46.113Z,51.05
2023-04-26T14:32:17.068Z,50.98
2023-04-26T14:34:48.161Z,51.08
2023-04-26T14:37:22.584Z,50.86
2023-04-26T14:39:54.016Z,50.91
2023-04-26T14:42:24.827Z,50.79
2023-04-26T14:44:55.969Z,50.72
2023-04-26T14:47:27.567Z,50.75
2023-04-26T14:49:59.586Z,50.74
2023-04-26T14:52:31.466Z,50.73
2023-04-26T14:55:02.539Z,50.82
2023-04-26T14:57:34.819Z,50.79
2023-04-26T15:00:08.798Z,50.70
2023-04-26T15:02:38.159Z,50.63
2023-04-26T15:05:10.852Z,50.80
2023-04-26T15:07:43.252Z,50.60
2023-04-26T15:10:14.069Z,50.62
2023-04-26T15:12:45.143Z,50.69
2023-04-26T15:15:16.598Z,50.57
2023-04-26T15:17:47.392Z,50.58
2023-04-26T15:20:18.825Z,50.60
2023-04-26T15:22:50.141Z,50.58
2023-04-26T15:25:21.282Z,50.49
2023-04-26T15:27:52.158Z,50.55
2023-04-26T15:30:23.230Z,50.54
2023-04-26T15:32:54.271Z,50.67
2023-04-26T15:35:25.568Z,50.51
2023-04-26T15:37:56.612Z,50.37
2023-04-26T15:40:27.879Z,50.29
2023-04-26T15:42:59.167Z,50.19
2023-04-26T15:45:30.472Z,49.98
2023-04-26T15:48:01.559Z,49.84
2023-04-26T15:50:32.963Z,49.76
2023-04-26T15:53:04.034Z,49.65
2023-04-26T15:55:37.138Z,49.57
2023-04-26T15:58:10.526Z,49.53
2023-04-26T16:00:42.111Z,49.50
2023-04-26T16:03:13.525Z,49.41
2023-04-26T16:05:44.670Z,49.41
2023-04-26T16:08:24.392Z,49.39
2023-04-26T16:11:04.933Z,49.34
2023-04-26T16:13:36.584Z,49.27
2023-04-26T16:16:12.657Z,49.23
2023-04-26T16:18:44.466Z,49.21
2023-04-26T16:21:16.305Z,49.59
2023-04-26T16:23:47.338Z,49.69
2023-04-26T16:26:18.317Z,49.61
2023-04-26T16:28:50.587Z,49.41
2023-04-26T16:31:22.539Z,49.42
2023-04-26T16:33:53.903Z,49.29
2023-04-26T16:36:26.469Z,49.33
2023-04-26T16:38:57.682Z,49.23
2023-04-26T16:41:28.975Z,49.33
2023-04-26T16:43:59.991Z,49.13
2023-04-26T16:46:31.249Z,49.29
2023-04-26T16:49:03.265Z,49.11
2023-04-26T16:51:34.588Z,49.10
2023-04-26T16:54:05.750Z,49.05
2023-04-26T16:56:36.849Z,49.07
2023-04-26T16:59:07.945Z,48.97
2023-04-26T17:01:39.060Z,48.91
2023-04-26T17:04:12.930Z,49.03
2023-04-26T17:06:45.872Z,49.06
2023-04-26T17:09:16.769Z,49.24
2023-04-26T17:11:47.648Z,49.25
2023-04-26T17:14:18.787Z,49.34
2023-04-26T17:16:50.030Z,49.32
2023-04-26T17:19:21.863Z,49.35
2023-04-26T17:21:52.681Z,49.31
2023-04-26T17:24:23.994Z,49.57
2023-04-26T17:26:54.944Z,49.71
2023-04-26T17:29:26.200Z,49.63
2023-04-26T17:31:57.136Z,49.64
2023-04-26T17:34:28.171Z,49.52
2023-04-26T17:36:59.036Z,49.72
2023-04-26T17:39:29.926Z,48.72
2023-04-26T17:42:00.977Z,47.89
2023-04-26T17:44:31.998Z,48.32
2023-04-26T17:47:02.960Z,48.46
2023-04-26T17:49:34.220Z,48.57
2023-04-26T17:52:05.615Z,48.63
2023-04-26T17:54:37.352Z,48.49
2023-04-26T17:57:08.496Z,48.47
2023-04-26T17:59:39.380Z,48.61
2023-04-26T18:02:10.372Z,48.63
2023-04-26T18:04:41.820Z,48.59
2023-04-26T18:07:13.327Z,48.60
2023-04-26T18:09:44.441Z,48.61
2023-04-26T18:12:15.535Z,48.73
2023-04-26T18:14:46.522Z,48.88
2023-04-26T18:17:17.888Z,48.65
2023-04-26T18:19:49.045Z,48.65
2023-04-26T18:22:22.474Z,48.71
2023-04-26T18:24:53.871Z,48.63
2023-04-26T18:27:25.149Z,48.54
2023-04-26T18:29:56.505Z,48.64
2023-04-26T18:32:27.905Z,48.69
2023-04-26T18:34:59.408Z,48.79
2023-04-26T18:37:30.449Z,48.51
2023-04-26T18:40:01.952Z,48.57
2023-04-26T18:42:32.949Z,48.59
2023-04-26T18:45:04.152Z,48.51
2023-04-26T18:47:35.131Z,48.25
2023-04-26T18:50:07.341Z,48.51
2023-04-26T18:52:39.789Z,48.34
2023-04-26T18:55:11.979Z,48.48
2023-04-26T18:57:42.983Z,48.17
2023-04-26T19:00:16.171Z,48.11
2023-04-26T19:02:47.235Z,48.15
2023-04-26T19:05:18.582Z,48.14
2023-04-26T19:07:52.720Z,48.17
2023-04-26T19:10:24.189Z,48.30
2023-04-26T19:12:55.351Z,47.90
2023-04-26T19:15:26.754Z,48.02
2023-04-26T19:17:58.641Z,48.07
2023-04-26T19:20:29.900Z,47.99
2023-04-26T19:23:01.541Z,48.00
2023-04-26T19:25:32.585Z,47.91
2023-04-26T19:28:03.633Z,48.04
2023-04-26T19:30:34.588Z,48.00
2023-04-26T19:33:05.854Z,47.43
2023-04-26T19:35:37.187Z,47.62
2023-04-26T19:38:08.124Z,47.54
2023-04-26T19:40:39.870Z,47.55
2023-04-26T19:43:11.295Z,47.58
2023-04-26T19:45:44.739Z,47.54
2023-04-26T19:48:16.272Z,47.70
2023-04-26T19:50:48.156Z,47.53
2023-04-26T19:53:19.321Z,47.47
2023-04-26T19:55:50.924Z,47.53
2023-04-26T19:58:22.123Z,47.52
2023-04-26T20:00:53.256Z,47.68
2023-04-26T20:03:24.552Z,47.11
2023-04-26T20:05:55.654Z,47.39
2023-04-26T20:08:26.641Z,47.17
2023-04-26T20:10:57.815Z,47.39
2023-04-26T20:13:29.113Z,47.49
2023-04-26T20:16:00.981Z,47.41
2023-04-26T20:18:31.818Z,47.32
2023-04-26T20:21:03.054Z,47.57
2023-04-26T20:23:33.898Z,47.54
2023-04-26T20:26:05.297Z,47.49
2023-04-26T20:28:37.489Z,47.62
2023-04-26T20:31:10.219Z,47.68
2023-04-26T20:33:41.266Z,47.69
2023-04-26T20:36:12.897Z,47.58
2023-04-26T20:38:43.769Z,47.53
2023-04-26T20:41:14.645Z,47.64
2023-04-26T20:43:45.676Z,47.77
2023-04-26T20:46:16.505Z,47.83
2023-04-26T20:48:48.031Z,47.96
2023-04-26T20:51:19.137Z,47.81
2023-04-26T20:53:50.255Z,47.98
2023-04-26T20:56:21.211Z,47.94
2023-04-26T20:58:52.055Z,47.94
2023-04-26T21:01:23.328Z,48.11
2023-04-26T21:03:54.659Z,47.61
2023-04-26T21:06:25.694Z,47.79
2023-04-26T21:08:56.910Z,47.73
2023-04-26T21:11:27.804Z,47.63
2023-04-26T21:13:59.010Z,47.73
2023-04-26T21:16:29.979Z,47.87
2023-04-26T21:19:01.166Z,47.79
2023-04-26T21:21:32.675Z,47.76
2023-04-26T21:24:04.170Z,48.13
2023-04-26T21:26:35.461Z,47.83
2023-04-26T21:29:06.824Z,48.02
2023-04-26T21:31:37.934Z,47.91
2023-04-26T21:34:09.677Z,48.16
2023-04-26T21:36:41.082Z,48.23
2023-04-26T21:39:12.176Z,48.27
2023-04-26T21:41:43.770Z,48.29
2023-04-26T21:44:14.708Z,48.22
2023-04-26T21:46:45.973Z,48.08
2023-04-26T21:49:17.645Z,48.33
2023-04-26T21:51:48.572Z,48.25
2023-04-26T21:54:19.512Z,48.23
2023-04-26T21:56:50.348Z,48.35
2023-04-26T21:59:21.360Z,48.13
2023-04-26T22:01:52.369Z,48.35
2023-04-26T22:04:23.534Z,48.30
2023-04-26T22:06:54.307Z,48.35
2023-04-26T22:09:25.436Z,48.47
2023-04-26T22:11:56.376Z,48.44
2023-04-26T22:14:27.139Z,48.34
2023-04-26T22:16:58.045Z,48.49
2023-04-26T22:19:29.022Z,48.51
2023-04-26T22:21:59.853Z,48.51
2023-04-26T22:24:30.640Z,48.35
2023-04-26T22:27:02.522Z,48.51
2023-04-26T22:29:33.393Z,48.49
2023-04-26T22:32:04.412Z,48.43
2023-04-26T22:34:35.312Z,48.54
2023-04-26T22:37:19.621Z,48.42
2023-04-26T22:39:53.710Z,48.45
2023-04-26T22:42:24.638Z,48.52
2023-04-26T22:44:57.994Z,48.62
2023-04-26T22:47:28.887Z,48.52
2023-04-26T22:49:59.702Z,48.48
2023-04-26T22:52:32.116Z,48.76
2023-04-26T22:55:03.225Z,48.66
2023-04-26T22:57:34.054Z,48.79
2023-04-26T23:00:05.617Z,48.71
2023-04-26T23:02:36.688Z,48.75
2023-04-26T23:05:10.333Z,48.83
2023-04-26T23:07:41.911Z,48.98
2023-04-26T23:10:13.721Z,48.93
2023-04-26T23:12:44.912Z,48.80
2023-04-26T23:15:15.881Z,49.04
2023-04-26T23:17:46.797Z,49.07
2023-04-26T23:20:17.894Z,48.92
2023-04-26T23:22:50.271Z,48.96
2023-04-26T23:25:21.592Z,48.91
2023-04-26T23:27:52.964Z,48.82
2023-04-26T23:30:24.093Z,49.10
2023-04-26T23:32:54.793Z,49.14
2023-04-26T23:35:25.585Z,49.04
2023-04-26T23:37:56.716Z,49.05
2023-04-26T23:40:27.706Z,49.29
2023-04-26T23:42:58.474Z,49.11
2023-04-26T23:45:29.185Z,49.28
2023-04-26T23:47:59.896Z,49.30
2023-04-26T23:50:30.730Z,49.23
2023-04-26T23:53:01.470Z,49.19
2023-04-26T23:55:32.622Z,49.45
2023-04-26T23:58:03.344Z,49.38
